createdAt,value
2018-02-14T00:00:35.213Z,19.73
2018-02-14T00:01:38.456Z,21.80
2018-02-14T00:02:41.676Z,28.95
2018-02-14T00:03:44.919Z,18.70
2018-02-14T00:04:48.892Z,20.12
2018-02-14T00:05:52.154Z,19.90
2018-02-14T00:06:55.368Z,24.50
2018-02-14T00:07:58.566Z,19.55
2018-02-14T00:09:01.795Z,19.50
2018-02-14T00:10:05.036Z,21.45
2018-02-14T00:11:08.265Z,18.15
2018-02-14T00:12:11.501Z,18.80
2018-02-14T00:13:14.772Z,18.77
2018-02-14T00:14:18.033Z,22.13
2018-02-14T00:15:21.265Z,20.35
2018-02-14T00:16:24.573Z,22.10
2018-02-14T00:17:27.822Z,19.45
2018-02-14T00:18:31.023Z,21.55
2018-02-14T00:19:34.336Z,19.17
2018-02-14T00:20:37.539Z,21.35
2018-02-14T00:21:40.765Z,19.62
2018-02-14T00:22:44.036Z,17.10
2018-02-14T00:23:48.021Z,21.73
2018-02-14T00:24:52.008Z,22.85
2018-02-14T00:25:55.232Z,19.17
2018-02-14T00:26:58.455Z,19.80
2018-02-14T00:28:01.695Z,26.80
2018-02-14T00:29:04.938Z,22.98
2018-02-14T00:30:08.160Z,19.75
2018-02-14T00:31:11.411Z,20.92
2018-02-14T00:32:14.638Z,21.08
2018-02-14T00:33:17.862Z,21.08
2018-02-14T00:34:21.185Z,18.48
2018-02-14T00:35:24.420Z,23.08
2018-02-14T00:36:27.676Z,17.15
2018-02-14T00:37:30.895Z,19.95
2018-02-14T00:38:34.131Z,22.00
2018-02-14T00:39:37.393Z,19.83
2018-02-14T00:40:40.686Z,21.83
2018-02-14T00:41:43.923Z,20.45
2018-02-14T00:42:47.144Z,20.23
2018-02-14T00:43:50.370Z,21.80
2018-02-14T00:44:53.596Z,18.95
2018-02-14T00:45:57.594Z,20.35
2018-02-14T00:47:01.589Z,20.23
2018-02-14T00:48:04.817Z,19.77
2018-02-14T00:49:08.034Z,22.75
2018-02-14T00:50:11.257Z,21.95
2018-02-14T00:51:14.486Z,21.27
2018-02-14T00:52:17.738Z,18.15
2018-02-14T00:53:20.969Z,20.45
2018-02-14T00:54:24.284Z,19.05
2018-02-14T00:55:27.524Z,18.40
2018-02-14T00:56:31.521Z,20.48
2018-02-14T00:57:34.748Z,18.77
2018-02-14T00:58:38.736Z,18.17
2018-02-14T00:59:42.739Z,21.67
2018-02-14T01:00:46.730Z,17.65
2018-02-14T01:01:49.955Z,21.05
2018-02-14T01:02:53.190Z,20.65
2018-02-14T01:03:56.502Z,20.55
2018-02-14T01:05:00.483Z,18.98
2018-02-14T01:06:04.487Z,20.27
2018-02-14T01:07:08.471Z,19.50
2018-02-14T01:08:11.709Z,19.40
2018-02-14T01:09:14.953Z,21.15
2018-02-14T01:10:18.944Z,25.55
2018-02-14T01:11:22.256Z,22.17
2018-02-14T01:12:25.492Z,19.37
2018-02-14T01:13:28.739Z,18.80
2018-02-14T01:14:31.949Z,18.35
2018-02-14T01:15:35.181Z,18.48
2018-02-14T01:16:39.173Z,19.20
2018-02-14T01:17:43.159Z,20.80
2018-02-14T01:18:48.170Z,18.85
2018-02-14T01:19:57.203Z,22.52
2018-02-14T01:21:00.451Z,20.40
2018-02-14T01:22:03.688Z,26.98
2018-02-14T01:23:07.684Z,23.30
2018-02-14T01:24:11.666Z,20.15
2018-02-14T01:25:14.904Z,23.62
2018-02-14T01:26:18.144Z,20.23
2018-02-14T01:27:22.160Z,20.25
2018-02-14T01:28:26.503Z,26.45
2018-02-14T01:29:31.375Z,22.45
2018-02-14T01:30:34.590Z,20.60
2018-02-14T01:31:37.823Z,18.65
2018-02-14T01:32:41.045Z,18.85
2018-02-14T01:33:44.276Z,19.92
2018-02-14T01:34:47.490Z,20.98
2018-02-14T01:35:51.477Z,20.88
2018-02-14T01:36:54.705Z,19.48
2018-02-14T01:37:57.953Z,23.70
2018-02-14T01:39:01.952Z,20.25
2018-02-14T01:40:05.193Z,23.30
2018-02-14T01:41:08.401Z,22.77
2018-02-14T01:42:11.641Z,20.83
2018-02-14T01:43:14.862Z,21.65
2018-02-14T01:44:18.106Z,18.73
2018-02-14T01:45:21.340Z,22.90
2018-02-14T01:46:24.568Z,23.62
2018-02-14T01:47:27.804Z,22.10
2018-02-14T01:48:31.810Z,23.33
2018-02-14T01:49:35.793Z,21.27
2018-02-14T01:50:39.011Z,22.75
2018-02-14T01:51:42.247Z,22.35
2018-02-14T01:52:45.461Z,24.23
2018-02-14T01:53:48.701Z,22.60
2018-02-14T01:54:51.923Z,21.55
2018-02-14T01:55:55.927Z,23.87
2018-02-14T01:56:59.903Z,21.17
2018-02-14T01:58:03.903Z,19.95
2018-02-14T01:59:07.138Z,21.37
2018-02-14T02:00:10.370Z,21.92
2018-02-14T02:01:13.597Z,23.58
2018-02-14T02:02:16.850Z,24.12
2018-02-14T02:03:20.862Z,24.70
2018-02-14T02:04:24.096Z,23.98
2018-02-14T02:05:27.309Z,26.42
2018-02-14T02:06:31.296Z,21.48
2018-02-14T02:07:34.506Z,25.40
2018-02-14T02:08:38.501Z,25.23
2018-02-14T02:09:42.497Z,21.48
2018-02-14T02:10:46.499Z,24.08
2018-02-14T02:11:50.501Z,21.65
2018-02-14T02:12:54.487Z,19.08
2018-02-14T02:13:57.753Z,22.20
2018-02-14T02:15:00.970Z,26.50
2018-02-14T02:16:04.964Z,23.30
2018-02-14T02:17:08.966Z,23.10
2018-02-14T02:18:13.041Z,22.40
2018-02-14T02:19:16.273Z,25.08
2018-02-14T02:20:19.516Z,21.48
2018-02-14T02:21:22.837Z,22.90
2018-02-14T02:22:26.070Z,20.88
2018-02-14T02:23:29.311Z,25.08
2018-02-14T02:24:32.548Z,23.42
2018-02-14T02:25:35.775Z,23.05
2018-02-14T02:26:38.993Z,21.92
2018-02-14T02:27:42.212Z,22.52
2018-02-14T02:28:46.212Z,19.83
2018-02-14T02:29:50.202Z,19.92
2018-02-14T02:30:54.484Z,23.00
2018-02-14T02:31:57.711Z,21.00
2018-02-14T02:33:01.749Z,24.25
2018-02-14T02:34:04.969Z,19.80
2018-02-14T02:35:08.204Z,23.98
2018-02-14T02:36:11.410Z,21.87
2018-02-14T02:37:14.644Z,19.55
2018-02-14T02:38:17.856Z,24.63
2018-02-14T02:39:47.656Z,25.48
2018-02-14T02:40:50.900Z,21.10
2018-02-14T02:41:54.134Z,24.05
2018-02-14T02:42:57.390Z,22.05
2018-02-14T02:44:00.627Z,20.40
2018-02-14T02:45:03.842Z,28.25
2018-02-14T02:46:07.819Z,22.50
2018-02-14T02:47:11.053Z,25.40
2018-02-14T02:48:14.311Z,24.10
2018-02-14T02:49:18.293Z,22.95
2018-02-14T02:50:21.585Z,24.55
2018-02-14T02:51:24.804Z,21.27
2018-02-14T02:52:28.042Z,20.70
2018-02-14T02:53:31.294Z,24.30
2018-02-14T02:54:34.518Z,22.83
2018-02-14T02:55:38.512Z,23.12
2018-02-14T02:56:41.731Z,27.02
2018-02-14T02:57:45.000Z,23.77
2018-02-14T02:58:49.053Z,23.98
2018-02-14T02:59:52.264Z,22.17
2018-02-14T03:00:56.258Z,23.33
2018-02-14T03:01:59.484Z,23.98
2018-02-14T03:03:02.735Z,23.10
2018-02-14T03:04:06.049Z,25.25
2018-02-14T03:05:09.272Z,21.27
2018-02-14T03:06:12.485Z,22.37
2018-02-14T03:07:16.475Z,23.27
2018-02-14T03:08:19.698Z,24.08
2018-02-14T03:09:22.969Z,25.48
2018-02-14T03:10:26.201Z,24.35
2018-02-14T03:11:29.420Z,24.15
2018-02-14T03:12:33.408Z,26.23
2018-02-14T03:13:37.393Z,25.65
2018-02-14T03:14:40.615Z,25.30
2018-02-14T03:15:43.840Z,23.90
2018-02-14T03:16:47.065Z,25.45
2018-02-14T03:17:51.065Z,23.42
2018-02-14T03:18:54.388Z,23.75
2018-02-14T03:19:57.622Z,27.15
2018-02-14T03:21:00.848Z,24.73
2018-02-14T03:22:04.069Z,25.80
2018-02-14T03:23:07.281Z,22.75
2018-02-14T03:24:11.304Z,26.58
2018-02-14T03:25:15.283Z,23.95
2018-02-14T03:26:19.285Z,20.85
2018-02-14T03:27:23.321Z,26.52
2018-02-14T03:28:26.549Z,22.50
2018-02-14T03:29:29.789Z,21.37
2018-02-14T03:30:33.053Z,24.48
2018-02-14T03:31:37.047Z,24.95
2018-02-14T03:32:41.063Z,21.60
2018-02-14T03:33:44.286Z,21.27
2018-02-14T03:34:47.518Z,24.65
2018-02-14T03:35:51.513Z,23.10
2018-02-14T03:36:55.518Z,23.00
2018-02-14T03:37:58.749Z,22.85
2018-02-14T03:39:02.004Z,25.23
2018-02-14T03:40:05.241Z,25.50
2018-02-14T03:41:08.457Z,24.50
2018-02-14T03:42:11.737Z,23.70
2018-02-14T03:43:14.981Z,22.83
2018-02-14T03:44:18.200Z,23.52
2018-02-14T03:45:21.441Z,22.20
2018-02-14T03:46:24.672Z,26.85
2018-02-14T03:47:27.968Z,22.33
2018-02-14T03:48:31.226Z,23.25
2018-02-14T03:49:34.447Z,25.85
2018-02-14T03:50:37.677Z,25.52
2018-02-14T03:51:41.680Z,25.10
2018-02-14T03:52:44.928Z,24.15
2018-02-14T03:53:48.131Z,24.40
2018-02-14T03:54:51.361Z,19.65
2018-02-14T03:55:54.660Z,24.77
2018-02-14T03:56:57.898Z,23.40
2018-02-14T03:58:01.906Z,24.70
2018-02-14T03:59:05.881Z,21.17
2018-02-14T04:00:09.866Z,22.67
2018-02-14T04:01:13.098Z,23.67
2018-02-14T04:02:16.319Z,20.55
2018-02-14T04:03:19.607Z,22.75
2018-02-14T04:04:22.796Z,21.85
2018-02-14T04:05:26.052Z,21.98
2018-02-14T04:06:29.285Z,24.08
2018-02-14T04:07:33.305Z,29.42
2018-02-14T04:08:36.530Z,23.73
2018-02-14T04:09:39.757Z,21.27
2018-02-14T04:10:43.752Z,23.60
2018-02-14T04:11:47.354Z,27.98
2018-02-14T04:12:51.462Z,23.50
2018-02-14T04:13:54.766Z,22.83
2018-02-14T04:14:57.992Z,21.85
2018-02-14T04:16:01.252Z,21.80
2018-02-14T04:17:04.460Z,24.05
2018-02-14T04:18:07.679Z,26.20
2018-02-14T04:19:10.925Z,25.88
2018-02-14T04:20:14.256Z,24.12
2018-02-14T04:21:17.480Z,21.20
2018-02-14T04:22:21.497Z,20.45
2018-02-14T04:23:24.712Z,24.85
2018-02-14T04:24:27.956Z,24.60
2018-02-14T04:25:31.191Z,24.98
2018-02-14T04:26:34.433Z,24.75
2018-02-14T04:27:37.656Z,22.02
2018-02-14T04:28:40.904Z,22.37
2018-02-14T04:29:44.901Z,28.42
2018-02-14T04:30:48.126Z,22.42
2018-02-14T04:31:51.356Z,22.95
2018-02-14T04:32:54.596Z,22.40
2018-02-14T04:33:57.817Z,24.92
2018-02-14T04:35:01.061Z,21.35
2018-02-14T04:36:04.288Z,25.65
2018-02-14T04:37:07.539Z,24.10
2018-02-14T04:38:10.775Z,22.70
2018-02-14T04:39:14.808Z,25.55
2018-02-14T04:40:18.046Z,23.60
2018-02-14T04:41:21.285Z,21.20
2018-02-14T04:42:24.581Z,22.58
2018-02-14T04:43:27.784Z,21.90
2018-02-14T04:44:31.040Z,25.58
2018-02-14T04:45:34.281Z,22.73
2018-02-14T04:46:38.276Z,20.58
2018-02-14T04:47:42.282Z,23.17
2018-02-14T04:48:46.267Z,24.15
2018-02-14T04:49:50.291Z,26.00
2018-02-14T04:50:54.277Z,21.35
2018-02-14T04:51:58.275Z,22.60
2018-02-14T04:53:01.514Z,21.85
2018-02-14T04:54:04.720Z,22.40
2018-02-14T04:55:07.964Z,24.25
2018-02-14T04:56:11.194Z,24.45
2018-02-14T04:57:14.414Z,24.02
2018-02-14T04:58:17.742Z,28.80
2018-02-14T04:59:20.935Z,24.17
2018-02-14T05:00:24.176Z,23.33
2018-02-14T05:01:27.406Z,23.10
2018-02-14T05:02:30.625Z,22.70
2018-02-14T05:03:33.846Z,23.05
2018-02-14T05:04:37.092Z,27.80
2018-02-14T05:05:40.321Z,25.58
2018-02-14T05:06:43.557Z,25.05
2018-02-14T05:07:46.782Z,24.87
2018-02-14T05:08:50.008Z,23.25
2018-02-14T05:09:54.021Z,21.33
2018-02-14T05:10:58.030Z,23.70
2018-02-14T05:12:01.264Z,27.80
2018-02-14T05:13:04.497Z,25.77
2018-02-14T05:14:07.705Z,25.35
2018-02-14T05:15:10.934Z,26.83
2018-02-14T05:16:14.946Z,24.20
2018-02-14T05:17:18.171Z,24.87
2018-02-14T05:18:21.418Z,23.77
2018-02-14T05:19:25.408Z,25.70
2018-02-14T05:20:29.404Z,24.83
2018-02-14T05:21:32.627Z,26.23
2018-02-14T05:22:36.104Z,27.05
2018-02-14T05:23:39.326Z,22.00
2018-02-14T05:24:42.624Z,22.20
2018-02-14T05:25:45.814Z,25.55
2018-02-14T05:26:49.045Z,21.73
2018-02-14T05:27:52.270Z,24.60
2018-02-14T05:28:55.552Z,22.67
2018-02-14T05:29:58.752Z,20.15
2018-02-14T05:31:01.972Z,22.87
2018-02-14T05:32:05.217Z,26.90
2018-02-14T05:33:08.471Z,22.73
2018-02-14T05:34:11.722Z,24.05
2018-02-14T05:35:14.936Z,26.87
2018-02-14T05:36:18.165Z,23.77
2018-02-14T05:37:22.168Z,25.48
2018-02-14T05:38:25.376Z,30.42
2018-02-14T05:39:28.642Z,26.80
2018-02-14T05:40:32.019Z,24.08
2018-02-14T05:41:36.011Z,25.58
2018-02-14T05:42:40.039Z,23.15
2018-02-14T05:43:43.276Z,24.42
2018-02-14T05:44:46.612Z,22.48
2018-02-14T05:45:49.942Z,22.52
2018-02-14T05:46:53.131Z,21.75
2018-02-14T05:47:56.364Z,22.37
2018-02-14T05:50:09.154Z,25.12
2018-02-14T05:51:13.171Z,23.45
2018-02-14T05:52:16.439Z,25.77
2018-02-14T05:53:20.438Z,25.35
2018-02-14T05:54:24.440Z,25.33
2018-02-14T05:55:28.476Z,25.50
2018-02-14T05:56:31.735Z,22.23
2018-02-14T05:57:35.738Z,22.52
2018-02-14T05:58:38.967Z,24.73
2018-02-14T05:59:42.185Z,23.08
2018-02-14T06:00:46.197Z,24.45
2018-02-14T06:01:50.186Z,28.98
2018-02-14T06:02:54.174Z,27.13
2018-02-14T06:03:57.401Z,25.17
2018-02-14T06:05:00.669Z,23.42
2018-02-14T06:06:03.900Z,31.60
2018-02-14T06:07:07.148Z,22.20
2018-02-14T06:08:10.379Z,26.40
2018-02-14T06:09:13.611Z,30.15
2018-02-14T06:10:16.842Z,25.10
2018-02-14T06:11:20.101Z,28.15
2018-02-14T06:12:23.343Z,26.27
2018-02-14T06:13:27.328Z,27.30
2018-02-14T06:14:31.357Z,21.73
2018-02-14T06:15:34.602Z,27.73
2018-02-14T06:16:37.862Z,28.23
2018-02-14T06:17:41.072Z,24.15
2018-02-14T06:18:44.364Z,30.95
2018-02-14T06:19:47.601Z,27.35
2018-02-14T06:20:50.823Z,30.20
2018-02-14T06:21:54.854Z,30.67
2018-02-14T06:22:58.863Z,26.25
2018-02-14T06:24:02.123Z,26.02
2018-02-14T06:25:06.145Z,24.30
2018-02-14T06:26:09.426Z,25.45
2018-02-14T06:27:12.661Z,25.05
2018-02-14T06:28:21.276Z,31.23
2018-02-14T06:29:24.526Z,34.50
2018-02-14T06:30:27.829Z,31.58
2018-02-14T06:31:31.117Z,27.08
2018-02-14T06:32:34.452Z,26.25
2018-02-14T06:33:37.699Z,28.10
2018-02-14T06:34:40.953Z,23.65
2018-02-14T06:35:44.332Z,26.52
2018-02-14T06:36:47.572Z,24.98
2018-02-14T06:37:51.567Z,28.02
2018-02-14T06:38:55.574Z,25.90
2018-02-14T06:39:58.867Z,25.48
2018-02-14T06:41:02.886Z,30.33
2018-02-14T06:42:06.163Z,24.40
2018-02-14T06:43:09.389Z,27.60
2018-02-14T06:44:12.610Z,24.80
2018-02-14T06:45:16.629Z,26.25
2018-02-14T06:46:19.900Z,27.15
2018-02-14T06:47:23.886Z,31.73
2018-02-14T06:48:27.958Z,25.90
2018-02-14T06:49:31.167Z,21.60
2018-02-14T06:50:35.168Z,28.23
2018-02-14T06:51:39.166Z,24.12
2018-02-14T06:52:42.386Z,27.25
2018-02-14T06:53:45.619Z,28.83
2018-02-14T06:54:48.841Z,24.80
2018-02-14T06:55:52.122Z,25.77
2018-02-14T06:56:55.441Z,28.55
2018-02-14T06:57:58.681Z,22.35
2018-02-14T06:59:01.899Z,25.35
2018-02-14T07:00:05.121Z,26.10
2018-02-14T07:01:08.522Z,23.75
2018-02-14T07:02:12.513Z,21.60
2018-02-14T07:03:15.747Z,21.48
2018-02-14T07:04:18.990Z,32.20
2018-02-14T07:05:22.201Z,26.00
2018-02-14T07:06:25.451Z,19.00
2018-02-14T07:07:28.680Z,24.67
2018-02-14T07:08:31.967Z,26.23
2018-02-14T07:09:35.963Z,20.88
2018-02-14T07:10:39.189Z,21.35
2018-02-14T07:11:42.408Z,15.82
2018-02-14T07:12:45.633Z,15.68
2018-02-14T07:13:49.641Z,15.05
2018-02-14T07:14:53.629Z,18.70
2018-02-14T07:15:56.856Z,19.98
2018-02-14T07:17:00.084Z,16.98
2018-02-14T07:18:03.318Z,15.38
2018-02-14T07:19:06.544Z,18.23
2018-02-14T07:20:09.774Z,21.20
2018-02-14T07:21:13.040Z,17.12
2018-02-14T07:22:17.009Z,19.35
2018-02-14T07:23:26.661Z,18.00
2018-02-14T07:24:29.911Z,18.85
2018-02-14T07:25:33.152Z,18.65
2018-02-14T07:26:36.377Z,20.88
2018-02-14T07:27:40.373Z,26.90
2018-02-14T07:28:43.600Z,17.70
2018-02-14T07:29:46.827Z,19.30
2018-02-14T07:30:50.059Z,23.55
2018-02-14T07:31:53.285Z,22.00
2018-02-14T07:32:56.516Z,21.92
2018-02-14T07:33:59.805Z,21.20
2018-02-14T07:35:03.091Z,21.37
2018-02-14T07:36:06.365Z,26.35
2018-02-14T07:37:09.634Z,22.35
2018-02-14T07:38:13.629Z,22.90
2018-02-14T07:39:17.631Z,28.92
2018-02-14T07:40:20.861Z,19.17
2018-02-14T07:41:24.072Z,23.20
2018-02-14T07:42:27.314Z,19.98
2018-02-14T07:43:30.540Z,20.73
2018-02-14T07:44:33.862Z,20.02
2018-02-14T07:45:37.860Z,23.00
2018-02-14T07:46:41.864Z,22.58
2018-02-14T07:47:45.125Z,21.17
2018-02-14T07:48:48.360Z,21.45
2018-02-14T07:49:51.586Z,23.50
2018-02-14T07:50:54.809Z,26.92
2018-02-14T07:51:58.060Z,22.13
2018-02-14T07:53:01.298Z,23.27
2018-02-14T07:54:04.541Z,24.92
2018-02-14T07:55:08.532Z,23.12
2018-02-14T07:56:12.517Z,22.92
2018-02-14T07:57:15.724Z,23.77
2018-02-14T07:58:18.966Z,20.27
2018-02-14T07:59:22.197Z,26.30
2018-02-14T08:00:25.424Z,25.45
2018-02-14T08:01:28.646Z,27.65
2018-02-14T08:02:32.640Z,29.15
2018-02-14T08:03:36.621Z,27.67
2018-02-14T08:04:41.349Z,24.75
2018-02-14T08:05:44.572Z,25.10
2018-02-14T08:06:47.853Z,22.25
2018-02-14T08:07:51.077Z,22.23
2018-02-14T08:08:54.306Z,22.00
2018-02-14T08:09:58.332Z,22.92
2018-02-14T08:11:01.571Z,23.02
2018-02-14T08:12:04.789Z,23.48
2018-02-14T08:13:08.018Z,21.00
2018-02-14T08:14:11.272Z,23.30
2018-02-14T08:15:14.501Z,26.40
2018-02-14T08:16:17.748Z,38.65
2018-02-14T08:17:20.972Z,20.12
2018-02-14T08:18:24.193Z,24.65
2018-02-14T08:19:27.422Z,22.90
2018-02-14T08:20:30.706Z,24.98
2018-02-14T08:21:33.947Z,23.52
2018-02-14T08:22:37.199Z,21.77
2018-02-14T08:23:41.177Z,23.23
2018-02-14T08:24:44.398Z,21.90
2018-02-14T08:25:47.625Z,22.83
2018-02-14T08:26:50.844Z,20.73
2018-02-14T08:27:54.935Z,19.60
2018-02-14T08:28:58.158Z,22.90
2018-02-14T08:30:01.388Z,22.90
2018-02-14T08:31:04.637Z,17.83
2018-02-14T08:32:07.873Z,20.12
2018-02-14T08:33:11.881Z,19.75
2018-02-14T08:34:15.872Z,13.48
2018-02-14T08:35:19.127Z,15.70
2018-02-14T08:36:22.356Z,16.73
2018-02-14T08:37:25.578Z,15.38
2018-02-14T08:38:28.801Z,14.75
2018-02-14T08:39:32.797Z,16.73
2018-02-14T08:40:36.813Z,14.57
2018-02-14T08:41:40.808Z,14.65
2018-02-14T08:42:44.795Z,17.33
2018-02-14T08:43:48.025Z,13.50
2018-02-14T08:44:51.277Z,20.30
2018-02-14T08:45:54.559Z,20.35
2018-02-14T08:46:57.759Z,17.00
2018-02-14T08:48:01.113Z,17.85
2018-02-14T08:49:04.324Z,20.67
2018-02-14T08:50:07.550Z,19.95
2018-02-14T08:51:10.825Z,17.35
2018-02-14T08:52:14.044Z,17.27
2018-02-14T08:53:17.353Z,17.42
2018-02-14T08:54:21.357Z,31.77
2018-02-14T08:55:24.581Z,18.58
2018-02-14T08:56:27.817Z,16.62
2018-02-14T08:57:31.812Z,23.67
2018-02-14T08:58:35.800Z,16.62
2018-02-14T08:59:39.789Z,15.60
2018-02-14T09:00:43.014Z,19.90
2018-02-14T09:01:46.226Z,16.62
2018-02-14T09:02:49.451Z,17.75
2018-02-14T09:03:52.679Z,22.70
2018-02-14T09:04:55.912Z,17.40
2018-02-14T09:05:59.126Z,19.08
2018-02-14T09:07:02.405Z,13.70
2018-02-14T09:08:05.702Z,13.82
2018-02-14T09:09:08.922Z,17.30
2018-02-14T09:10:12.149Z,10.43
2018-02-14T09:11:16.209Z,13.45
2018-02-14T09:12:19.400Z,14.10
2018-02-14T09:13:22.616Z,8.95
2018-02-14T09:14:26.615Z,10.18
2018-02-14T09:15:30.604Z,11.63
2018-02-14T09:16:34.604Z,8.55
2018-02-14T09:17:37.794Z,9.25
2018-02-14T09:18:41.809Z,12.15
2018-02-14T09:19:45.041Z,8.63
2018-02-14T09:20:48.269Z,9.88
2018-02-14T09:21:52.271Z,7.95
2018-02-14T09:22:56.248Z,8.98
2018-02-14T09:23:59.562Z,13.45
2018-02-14T09:25:02.810Z,10.73
2018-02-14T09:26:06.018Z,8.60
2018-02-14T09:27:09.252Z,10.07
2018-02-14T09:28:12.466Z,14.57
2018-02-14T09:29:15.686Z,11.80
2018-02-14T09:30:18.909Z,11.00
2018-02-14T09:31:22.163Z,10.02
2018-02-14T09:32:25.416Z,11.02
2018-02-14T09:33:29.403Z,8.55
2018-02-14T09:34:32.633Z,12.13
2018-02-14T09:35:35.868Z,15.88
2018-02-14T09:36:39.844Z,12.35
2018-02-14T09:37:43.065Z,9.90
2018-02-14T09:38:46.281Z,14.48
2018-02-14T09:39:49.502Z,14.87
2018-02-14T09:40:54.345Z,16.77
2018-02-14T09:41:58.349Z,15.55
2018-02-14T09:43:01.577Z,18.45
2018-02-14T09:44:04.817Z,14.85
2018-02-14T09:45:08.032Z,15.07
2018-02-14T09:46:11.245Z,9.45
2018-02-14T09:47:14.478Z,10.45
2018-02-14T09:48:17.697Z,11.20
2018-02-14T09:49:20.911Z,15.30
2018-02-14T09:50:24.887Z,14.43
2018-02-14T09:51:29.624Z,12.10
2018-02-14T09:52:33.612Z,12.85
2018-02-14T09:53:36.830Z,12.57
2018-02-14T09:54:40.807Z,8.68
2018-02-14T09:55:44.016Z,12.98
2018-02-14T09:56:47.995Z,11.43
2018-02-14T09:57:51.972Z,9.55
2018-02-14T09:58:55.180Z,14.90
2018-02-14T09:59:59.170Z,8.80
2018-02-14T10:01:02.377Z,9.93
2018-02-14T10:02:06.348Z,11.95
2018-02-14T10:03:09.573Z,12.35
2018-02-14T10:04:13.529Z,15.27
2018-02-14T10:05:16.745Z,10.70
2018-02-14T10:06:19.954Z,10.30
2018-02-14T10:07:23.190Z,10.68
2018-02-14T10:08:26.402Z,10.32
2018-02-14T10:09:29.632Z,7.95
2018-02-14T10:10:32.845Z,15.15
2018-02-14T10:11:36.838Z,9.48
2018-02-14T10:12:40.049Z,10.77
2018-02-14T10:13:43.318Z,10.70
2018-02-14T10:14:47.300Z,9.88
2018-02-14T10:15:52.047Z,18.62
2018-02-14T10:16:55.276Z,17.58
2018-02-14T10:17:58.498Z,11.02
2018-02-14T10:19:02.488Z,10.43
2018-02-14T10:20:05.696Z,8.55
2018-02-14T10:21:08.905Z,14.73
2018-02-14T10:22:12.122Z,8.55
2018-02-14T10:23:15.331Z,10.40
2018-02-14T10:24:19.315Z,11.95
2018-02-14T10:25:22.537Z,10.48
2018-02-14T10:26:25.740Z,9.63
2018-02-14T10:27:28.961Z,12.93
2018-02-14T10:28:32.189Z,7.43
2018-02-14T10:29:35.396Z,10.20
2018-02-14T10:30:38.618Z,12.23
2018-02-14T10:31:42.609Z,10.48
2018-02-14T10:32:45.816Z,12.82
2018-02-14T10:33:49.046Z,15.70
2018-02-14T10:34:52.293Z,8.48
2018-02-14T10:35:55.509Z,14.15
2018-02-14T10:36:58.738Z,20.40
2018-02-14T10:38:02.719Z,11.32
2018-02-14T10:39:05.925Z,7.55
2018-02-14T10:40:09.149Z,8.90
2018-02-14T10:41:12.389Z,10.55
2018-02-14T10:42:16.378Z,9.38
2018-02-14T10:43:19.581Z,9.82
2018-02-14T10:44:22.804Z,8.55
2018-02-14T10:45:26.044Z,8.65
2018-02-14T10:46:29.259Z,10.05
2018-02-14T10:47:32.525Z,11.95
2018-02-14T10:48:35.729Z,9.32
2018-02-14T10:49:39.294Z,11.30
2018-02-14T10:50:42.521Z,11.27
2018-02-14T10:51:45.730Z,7.57
2018-02-14T10:52:49.732Z,10.73
2018-02-14T10:53:53.720Z,8.27
2018-02-14T10:54:56.918Z,8.48
2018-02-14T10:56:00.902Z,9.95
2018-02-14T10:57:04.144Z,10.00
2018-02-14T10:58:07.446Z,13.02
2018-02-14T10:59:10.629Z,11.65
2018-02-14T11:00:19.477Z,10.52
2018-02-14T11:01:29.190Z,8.00
2018-02-14T11:02:38.090Z,9.25
2018-02-14T11:03:44.165Z,6.57
2018-02-14T11:04:53.260Z,5.35
2018-02-14T11:06:02.204Z,8.18
2018-02-14T11:07:22.983Z,8.27
2018-02-14T11:08:26.293Z,5.57
2018-02-14T11:09:30.274Z,7.57
2018-02-14T11:10:33.483Z,15.73
2018-02-14T11:11:36.700Z,10.93
2018-02-14T11:12:39.910Z,6.10
2018-02-14T11:13:43.123Z,11.55
2018-02-14T11:14:47.131Z,12.63
2018-02-14T11:15:51.096Z,7.07
2018-02-14T11:16:54.418Z,13.25
2018-02-14T11:17:58.388Z,7.65
2018-02-14T11:19:01.622Z,11.23
2018-02-14T11:20:04.853Z,7.87
2018-02-14T11:21:08.114Z,10.88
2018-02-14T11:22:11.321Z,8.57
2018-02-14T11:23:14.535Z,8.10
2018-02-14T11:24:17.748Z,11.50
2018-02-14T11:25:20.971Z,10.48
2018-02-14T11:26:24.187Z,14.52
2018-02-14T11:27:27.402Z,8.90
2018-02-14T11:28:30.611Z,10.32
2018-02-14T11:29:33.927Z,8.43
2018-02-14T11:30:37.916Z,9.80
2018-02-14T11:31:41.904Z,8.20
2018-02-14T11:32:45.112Z,10.10
2018-02-14T11:33:48.325Z,10.55
2018-02-14T11:34:51.546Z,10.45
2018-02-14T11:35:54.810Z,8.63
2018-02-14T11:36:58.008Z,7.55
2018-02-14T11:38:01.230Z,13.88
2018-02-14T11:39:05.190Z,10.88
2018-02-14T11:40:08.411Z,13.23
2018-02-14T11:41:11.629Z,7.60
2018-02-14T11:42:14.837Z,10.23
2018-02-14T11:43:18.052Z,11.90
2018-02-14T11:44:21.264Z,13.40
2018-02-14T11:45:24.497Z,8.07
2018-02-14T11:46:27.721Z,7.57
2018-02-14T11:47:30.931Z,8.73
2018-02-14T11:48:34.165Z,10.40
2018-02-14T11:49:37.385Z,8.10
2018-02-14T11:50:40.590Z,9.80
2018-02-14T11:51:43.809Z,8.23
2018-02-14T11:52:47.777Z,7.60
2018-02-14T11:53:50.988Z,8.25
2018-02-14T11:54:54.958Z,7.80
2018-02-14T11:55:58.218Z,8.15
2018-02-14T11:57:01.437Z,9.32
2018-02-14T11:58:04.680Z,12.68
2018-02-14T11:59:07.890Z,9.60
2018-02-14T12:00:11.118Z,9.30
2018-02-14T12:01:14.325Z,9.68
2018-02-14T12:02:17.579Z,10.38
2018-02-14T12:03:21.554Z,11.93
2018-02-14T12:04:25.551Z,8.30
2018-02-14T12:05:28.745Z,8.85
2018-02-14T12:06:32.729Z,11.12
2018-02-14T12:07:35.948Z,10.23
2018-02-14T12:08:39.157Z,10.00
2018-02-14T12:09:42.395Z,8.48
2018-02-14T12:10:46.388Z,8.57
2018-02-14T12:11:49.583Z,8.93
2018-02-14T12:12:53.569Z,11.88
2018-02-14T12:13:56.810Z,9.38
2018-02-14T12:15:00.065Z,9.13
2018-02-14T12:16:03.279Z,9.27
2018-02-14T12:17:06.489Z,11.05
2018-02-14T12:18:10.464Z,8.60
2018-02-14T12:19:13.672Z,8.85
2018-02-14T12:20:17.654Z,8.98
2018-02-14T12:21:20.873Z,8.45
2018-02-14T12:22:24.069Z,8.90
2018-02-14T12:23:27.294Z,8.38
2018-02-14T12:24:30.513Z,11.80
2018-02-14T12:25:33.725Z,7.80
2018-02-14T12:26:36.960Z,9.30
2018-02-14T12:27:40.933Z,9.35
2018-02-14T12:28:44.147Z,8.57
2018-02-14T12:29:48.210Z,9.38
2018-02-14T12:30:51.380Z,9.55
2018-02-14T12:31:54.617Z,10.95
2018-02-14T12:32:58.589Z,12.32
2018-02-14T12:34:01.800Z,7.82
2018-02-14T12:35:05.776Z,14.23
2018-02-14T12:36:08.987Z,7.75
2018-02-14T12:37:12.205Z,9.50
2018-02-14T12:38:15.408Z,8.48
2018-02-14T12:39:18.612Z,10.40
2018-02-14T12:40:21.872Z,7.53
2018-02-14T12:41:25.078Z,11.27
2018-02-14T12:42:29.100Z,12.88
2018-02-14T12:43:32.356Z,9.10
2018-02-14T12:44:35.570Z,8.48
2018-02-14T12:45:38.784Z,8.80
2018-02-14T12:46:41.985Z,9.75
2018-02-14T12:47:45.199Z,10.30
2018-02-14T12:48:49.169Z,10.55
2018-02-14T12:49:52.405Z,10.25
2018-02-14T12:50:55.612Z,11.95
2018-02-14T12:51:58.850Z,13.30
2018-02-14T12:53:03.105Z,12.35
2018-02-14T12:54:06.344Z,12.75
2018-02-14T12:55:10.332Z,11.15
2018-02-14T12:56:13.537Z,13.57
2018-02-14T12:57:16.770Z,12.50
2018-02-14T12:58:19.994Z,12.35
2018-02-14T12:59:23.209Z,12.65
2018-02-14T13:00:26.423Z,13.65
2018-02-14T13:01:29.765Z,15.95
2018-02-14T13:02:32.990Z,13.23
2018-02-14T13:03:36.219Z,13.60
2018-02-14T13:04:39.441Z,13.52
2018-02-14T13:05:42.661Z,14.13
2018-02-14T13:06:46.652Z,15.70
2018-02-14T13:07:50.641Z,13.43
2018-02-14T13:08:53.952Z,13.57
2018-02-14T13:09:57.188Z,16.12
2018-02-14T13:11:00.417Z,14.55
2018-02-14T13:12:04.444Z,14.32
2018-02-14T13:13:07.664Z,14.02
2018-02-14T13:14:10.892Z,16.35
2018-02-14T13:15:14.120Z,13.90
2018-02-14T13:16:17.333Z,14.00
2018-02-14T13:17:21.421Z,16.75
2018-02-14T13:18:24.643Z,14.20
2018-02-14T13:19:27.857Z,14.20
2018-02-14T13:20:31.077Z,16.45
2018-02-14T13:21:34.298Z,15.02
2018-02-14T13:22:37.520Z,15.32
2018-02-14T13:23:40.836Z,17.40
2018-02-14T13:24:44.829Z,17.10
2018-02-14T13:25:48.807Z,15.27
2018-02-14T13:26:52.042Z,19.98
2018-02-14T13:27:55.273Z,14.95
2018-02-14T13:28:58.605Z,14.57
2018-02-14T13:30:01.867Z,14.73
2018-02-14T13:31:05.896Z,17.70
2018-02-14T13:32:09.155Z,14.52
2018-02-14T13:33:13.151Z,15.73
2018-02-14T13:34:17.138Z,16.60
2018-02-14T13:35:21.144Z,13.73
2018-02-14T13:36:25.122Z,14.68
2018-02-14T13:37:28.345Z,18.77
2018-02-14T13:38:31.823Z,14.68
2018-02-14T13:39:35.799Z,15.43
2018-02-14T13:40:39.797Z,14.90
2018-02-14T13:41:43.124Z,14.15
2018-02-14T13:42:46.352Z,15.32